sensor_id;sensor_type;location;lat;lon;timestamp;temperature;humidity
2300;DHT22;1158;48.750;9.078;2023-03-30T00:02:17;14.50;96.70
2300;DHT22;1158;48.750;9.078;2023-03-30T00:04:47;14.50;96.90
2300;DHT22;1158;48.750;9.078;2023-03-30T00:07:15;14.40;96.90
2300;DHT22;1158;48.750;9.078;2023-03-30T00:09:42;14.40;97.20
2300;DHT22;1158;48.750;9.078;2023-03-30T00:12:11;14.40;97.20
2300;DHT22;1158;48.750;9.078;2023-03-30T00:14:39;14.30;97.30
2300;DHT22;1158;48.750;9.078;2023-03-30T00:17:07;14.40;97.40
2300;DHT22;1158;48.750;9.078;2023-03-30T00:19:35;14.50;97.40
2300;DHT22;1158;48.750;9.078;2023-03-30T00:22:02;14.40;97.40
2300;DHT22;1158;48.750;9.078;2023-03-30T00:24:30;14.40;97.50
2300;DHT22;1158;48.750;9.078;2023-03-30T00:26:57;14.40;97.60
2300;DHT22;1158;48.750;9.078;2023-03-30T00:29:23;14.40;97.70
2300;DHT22;1158;48.750;9.078;2023-03-30T00:31:50;14.40;97.80
2300;DHT22;1158;48.750;9.078;2023-03-30T00:34:17;14.40;97.80
2300;DHT22;1158;48.750;9.078;2023-03-30T00:36:44;14.40;97.90
2300;DHT22;1158;48.750;9.078;2023-03-30T00:39:12;14.40;98.00
2300;DHT22;1158;48.750;9.078;2023-03-30T00:41:40;14.30;98.00
2300;DHT22;1158;48.750;9.078;2023-03-30T00:46:49;14.30;98.20
2300;DHT22;1158;48.750;9.078;2023-03-30T00:49:16;14.20;98.40
2300;DHT22;1158;48.750;9.078;2023-03-30T00:51:43;14.20;98.50
2300;DHT22;1158;48.750;9.078;2023-03-30T00:54:14;14.10;98.60
2300;DHT22;1158;48.750;9.078;2023-03-30T00:56:43;14.10;98.70
2300;DHT22;1158;48.750;9.078;2023-03-30T00:59:11;14.10;98.90
2300;DHT22;1158;48.750;9.078;2023-03-30T01:01:38;14.00;98.90
2300;DHT22;1158;48.750;9.078;2023-03-30T01:04:08;14.10;99.00
2300;DHT22;1158;48.750;9.078;2023-03-30T01:06:35;14.00;99.10
2300;DHT22;1158;48.750;9.078;2023-03-30T01:09:04;14.00;99.30
2300;DHT22;1158;48.750;9.078;2023-03-30T01:11:32;13.90;99.50
2300;DHT22;1158;48.750;9.078;2023-03-30T01:14:04;13.90;99.60
2300;DHT22;1158;48.750;9.078;2023-03-30T01:16:38;13.90;99.60
2300;DHT22;1158;48.750;9.078;2023-03-30T01:19:26;14.00;99.70
2300;DHT22;1158;48.750;9.078;2023-03-30T01:22:20;14.00;99.80
2300;DHT22;1158;48.750;9.078;2023-03-30T01:25:19;14.00;99.90
2300;DHT22;1158;48.750;9.078;2023-03-30T01:28:08;14.00;99.90
2300;DHT22;1158;48.750;9.078;2023-03-30T01:30:52;14.00;99.90
2300;DHT22;1158;48.750;9.078;2023-03-30T01:36:53;13.20;99.90
2300;DHT22;1158;48.750;9.078;2023-03-30T01:39:34;12.90;99.90
2300;DHT22;1158;48.750;9.078;2023-03-30T01:42:12;12.80;99.90
2300;DHT22;1158;48.750;9.078;2023-03-30T01:44:47;12.70;99.90
2300;DHT22;1158;48.750;9.078;2023-03-30T01:47:18;12.70;99.90
2300;DHT22;1158;48.750;9.078;2023-03-30T01:49:53;12.70;99.90
2300;DHT22;1158;48.750;9.078;2023-03-30T01:52:25;12.70;99.90
2300;DHT22;1158;48.750;9.078;2023-03-30T01:54:57;12.80;99.90
2300;DHT22;1158;48.750;9.078;2023-03-30T01:57:30;12.90;99.90
2300;DHT22;1158;48.750;9.078;2023-03-30T02:00:02;13.00;99.90
2300;DHT22;1158;48.750;9.078;2023-03-30T02:02:38;13.10;99.90
2300;DHT22;1158;48.750;9.078;2023-03-30T02:05:07;13.00;99.90
2300;DHT22;1158;48.750;9.078;2023-03-30T02:07:36;13.10;99.90
2300;DHT22;1158;48.750;9.078;2023-03-30T02:10:08;13.00;99.90
2300;DHT22;1158;48.750;9.078;2023-03-30T02:12:37;13.00;99.90
2300;DHT22;1158;48.750;9.078;2023-03-30T02:15:07;13.00;99.90
2300;DHT22;1158;48.750;9.078;2023-03-30T02:17:35;13.00;99.90
2300;DHT22;1158;48.750;9.078;2023-03-30T02:20:04;13.00;99.90
2300;DHT22;1158;48.750;9.078;2023-03-30T02:22:33;13.10;99.90
2300;DHT22;1158;48.750;9.078;2023-03-30T02:24:59;13.10;99.90
2300;DHT22;1158;48.750;9.078;2023-03-30T02:27:28;13.20;99.90
2300;DHT22;1158;48.750;9.078;2023-03-30T02:29:56;13.20;99.90
2300;DHT22;1158;48.750;9.078;2023-03-30T02:32:25;13.20;99.90
2300;DHT22;1158;48.750;9.078;2023-03-30T02:35:06;13.20;99.90
2300;DHT22;1158;48.750;9.078;2023-03-30T02:37:46;13.10;99.90
2300;DHT22;1158;48.750;9.078;2023-03-30T02:40:27;13.10;99.90
2300;DHT22;1158;48.750;9.078;2023-03-30T02:43:10;13.10;99.90
2300;DHT22;1158;48.750;9.078;2023-03-30T02:45:48;13.10;99.90
2300;DHT22;1158;48.750;9.078;2023-03-30T02:48:25;13.10;99.90
2300;DHT22;1158;48.750;9.078;2023-03-30T02:51:04;13.10;99.90
2300;DHT22;1158;48.750;9.078;2023-03-30T02:53:41;12.90;99.90
2300;DHT22;1158;48.750;9.078;2023-03-30T02:56:15;12.70;99.90
2300;DHT22;1158;48.750;9.078;2023-03-30T02:58:52;12.50;99.90
2300;DHT22;1158;48.750;9.078;2023-03-30T03:01:25;12.40;99.90
2300;DHT22;1158;48.750;9.078;2023-03-30T03:03:55;12.20;99.90
2300;DHT22;1158;48.750;9.078;2023-03-30T03:06:24;12.00;99.90
2300;DHT22;1158;48.750;9.078;2023-03-30T03:08:53;11.80;99.90
2300;DHT22;1158;48.750;9.078;2023-03-30T03:11:20;11.70;99.90
2300;DHT22;1158;48.750;9.078;2023-03-30T03:13:49;11.60;99.90
2300;DHT22;1158;48.750;9.078;2023-03-30T03:16:16;11.50;99.90
2300;DHT22;1158;48.750;9.078;2023-03-30T03:18:42;11.40;99.90
2300;DHT22;1158;48.750;9.078;2023-03-30T03:21:11;11.30;99.90
2300;DHT22;1158;48.750;9.078;2023-03-30T03:23:39;11.30;99.90
2300;DHT22;1158;48.750;9.078;2023-03-30T03:26:06;11.20;99.90
2300;DHT22;1158;48.750;9.078;2023-03-30T03:28:33;11.20;99.90
2300;DHT22;1158;48.750;9.078;2023-03-30T03:31:01;11.20;99.90
2300;DHT22;1158;48.750;9.078;2023-03-30T03:33:29;11.20;99.90
2300;DHT22;1158;48.750;9.078;2023-03-30T03:35:57;11.30;99.90
2300;DHT22;1158;48.750;9.078;2023-03-30T03:38:25;11.20;99.90
2300;DHT22;1158;48.750;9.078;2023-03-30T03:40:53;11.20;99.90
2300;DHT22;1158;48.750;9.078;2023-03-30T03:43:21;11.20;99.90
2300;DHT22;1158;48.750;9.078;2023-03-30T03:45:48;11.20;99.90
2300;DHT22;1158;48.750;9.078;2023-03-30T03:48:18;11.10;99.90
2300;DHT22;1158;48.750;9.078;2023-03-30T03:50:49;11.10;99.90
2300;DHT22;1158;48.750;9.078;2023-03-30T03:53:16;11.10;99.90
2300;DHT22;1158;48.750;9.078;2023-03-30T03:55:43;11.10;99.90
2300;DHT22;1158;48.750;9.078;2023-03-30T03:58:10;11.10;99.90
2300;DHT22;1158;48.750;9.078;2023-03-30T04:00:36;11.20;99.90
2300;DHT22;1158;48.750;9.078;2023-03-30T04:03:03;11.20;99.90
2300;DHT22;1158;48.750;9.078;2023-03-30T04:05:32;11.20;99.90
2300;DHT22;1158;48.750;9.078;2023-03-30T04:07:58;11.20;99.90
2300;DHT22;1158;48.750;9.078;2023-03-30T04:10:26;11.30;99.90
2300;DHT22;1158;48.750;9.078;2023-03-30T04:12:54;11.30;99.90
2300;DHT22;1158;48.750;9.078;2023-03-30T04:15:21;11.30;99.90
2300;DHT22;1158;48.750;9.078;2023-03-30T04:17:48;11.40;99.90
2300;DHT22;1158;48.750;9.078;2023-03-30T04:20:22;11.40;99.90
2300;DHT22;1158;48.750;9.078;2023-03-30T04:22:50;11.40;99.90
2300;DHT22;1158;48.750;9.078;2023-03-30T04:25:19;11.40;99.90
2300;DHT22;1158;48.750;9.078;2023-03-30T04:27:46;11.40;99.90
2300;DHT22;1158;48.750;9.078;2023-03-30T04:30:15;11.40;99.90
2300;DHT22;1158;48.750;9.078;2023-03-30T04:32:42;11.50;99.90
2300;DHT22;1158;48.750;9.078;2023-03-30T04:35:09;11.50;99.90
2300;DHT22;1158;48.750;9.078;2023-03-30T04:37:36;11.60;99.90
2300;DHT22;1158;48.750;9.078;2023-03-30T04:40:09;11.60;99.90
2300;DHT22;1158;48.750;9.078;2023-03-30T04:42:35;11.60;99.90
2300;DHT22;1158;48.750;9.078;2023-03-30T04:45:03;11.60;99.90
2300;DHT22;1158;48.750;9.078;2023-03-30T04:47:31;11.70;99.90
2300;DHT22;1158;48.750;9.078;2023-03-30T04:49:57;11.70;99.90
2300;DHT22;1158;48.750;9.078;2023-03-30T04:52:25;11.70;99.90
2300;DHT22;1158;48.750;9.078;2023-03-30T04:54:52;11.80;99.90
2300;DHT22;1158;48.750;9.078;2023-03-30T04:57:20;11.90;99.90
2300;DHT22;1158;48.750;9.078;2023-03-30T04:59:47;11.90;99.90
2300;DHT22;1158;48.750;9.078;2023-03-30T05:02:14;12.00;99.90
2300;DHT22;1158;48.750;9.078;2023-03-30T05:04:41;12.00;99.90
2300;DHT22;1158;48.750;9.078;2023-03-30T05:07:08;12.00;99.90
2300;DHT22;1158;48.750;9.078;2023-03-30T05:09:35;12.00;99.90
2300;DHT22;1158;48.750;9.078;2023-03-30T05:12:02;12.00;99.90
2300;DHT22;1158;48.750;9.078;2023-03-30T05:14:30;12.00;99.90
2300;DHT22;1158;48.750;9.078;2023-03-30T05:16:57;12.00;99.90
2300;DHT22;1158;48.750;9.078;2023-03-30T05:19:24;12.00;99.90
2300;DHT22;1158;48.750;9.078;2023-03-30T05:21:51;12.00;99.90
2300;DHT22;1158;48.750;9.078;2023-03-30T05:24:17;12.00;99.90
2300;DHT22;1158;48.750;9.078;2023-03-30T05:26:44;12.00;99.90
2300;DHT22;1158;48.750;9.078;2023-03-30T05:29:11;12.00;99.90
2300;DHT22;1158;48.750;9.078;2023-03-30T05:31:39;12.00;99.90
2300;DHT22;1158;48.750;9.078;2023-03-30T05:34:06;12.10;99.90
2300;DHT22;1158;48.750;9.078;2023-03-30T05:36:33;12.10;99.90
2300;DHT22;1158;48.750;9.078;2023-03-30T05:39:00;12.00;99.90
2300;DHT22;1158;48.750;9.078;2023-03-30T05:41:29;12.10;99.90
2300;DHT22;1158;48.750;9.078;2023-03-30T05:43:56;12.10;99.90
2300;DHT22;1158;48.750;9.078;2023-03-30T05:46:23;12.10;99.90
2300;DHT22;1158;48.750;9.078;2023-03-30T05:48:51;12.10;99.90
2300;DHT22;1158;48.750;9.078;2023-03-30T05:51:17;12.20;99.90
2300;DHT22;1158;48.750;9.078;2023-03-30T05:53:45;12.20;99.90
2300;DHT22;1158;48.750;9.078;2023-03-30T05:56:11;12.20;99.90
2300;DHT22;1158;48.750;9.078;2023-03-30T05:58:38;12.30;99.90
2300;DHT22;1158;48.750;9.078;2023-03-30T06:01:05;12.30;99.90
2300;DHT22;1158;48.750;9.078;2023-03-30T06:03:33;12.30;99.90
2300;DHT22;1158;48.750;9.078;2023-03-30T06:06:02;12.30;99.90
2300;DHT22;1158;48.750;9.078;2023-03-30T06:08:29;12.30;99.90
2300;DHT22;1158;48.750;9.078;2023-03-30T06:10:56;12.30;99.90
2300;DHT22;1158;48.750;9.078;2023-03-30T06:13:23;12.30;99.90
2300;DHT22;1158;48.750;9.078;2023-03-30T06:15:50;12.20;99.90
2300;DHT22;1158;48.750;9.078;2023-03-30T06:18:17;12.10;99.90
2300;DHT22;1158;48.750;9.078;2023-03-30T06:20:45;12.00;99.90
2300;DHT22;1158;48.750;9.078;2023-03-30T06:23:14;11.90;99.90
2300;DHT22;1158;48.750;9.078;2023-03-30T06:25:45;11.80;99.90
2300;DHT22;1158;48.750;9.078;2023-03-30T06:28:11;11.70;99.90
2300;DHT22;1158;48.750;9.078;2023-03-30T06:30:38;11.70;99.90
2300;DHT22;1158;48.750;9.078;2023-03-30T06:33:05;11.70;99.90
2300;DHT22;1158;48.750;9.078;2023-03-30T06:35:32;11.60;99.90
2300;DHT22;1158;48.750;9.078;2023-03-30T06:37:59;11.60;99.90
2300;DHT22;1158;48.750;9.078;2023-03-30T06:40:27;11.60;99.90
2300;DHT22;1158;48.750;9.078;2023-03-30T06:42:54;11.60;99.90
2300;DHT22;1158;48.750;9.078;2023-03-30T06:45:21;11.60;99.90
2300;DHT22;1158;48.750;9.078;2023-03-30T06:47:48;11.70;99.90
2300;DHT22;1158;48.750;9.078;2023-03-30T06:50:15;11.70;99.90
2300;DHT22;1158;48.750;9.078;2023-03-30T06:52:42;11.70;99.90
2300;DHT22;1158;48.750;9.078;2023-03-30T06:55:09;11.70;99.90
2300;DHT22;1158;48.750;9.078;2023-03-30T06:57:37;11.80;99.90
2300;DHT22;1158;48.750;9.078;2023-03-30T07:00:05;11.80;99.90
2300;DHT22;1158;48.750;9.078;2023-03-30T07:02:38;11.90;99.90
2300;DHT22;1158;48.750;9.078;2023-03-30T07:05:05;12.00;99.90
2300;DHT22;1158;48.750;9.078;2023-03-30T07:07:32;12.10;99.90
2300;DHT22;1158;48.750;9.078;2023-03-30T07:09:59;12.10;99.90
2300;DHT22;1158;48.750;9.078;2023-03-30T07:12:26;12.10;99.90
2300;DHT22;1158;48.750;9.078;2023-03-30T07:14:54;12.00;99.90
2300;DHT22;1158;48.750;9.078;2023-03-30T07:17:21;11.90;99.90
2300;DHT22;1158;48.750;9.078;2023-03-30T07:19:48;11.80;99.90
2300;DHT22;1158;48.750;9.078;2023-03-30T07:22:15;11.70;99.90
2300;DHT22;1158;48.750;9.078;2023-03-30T07:24:42;11.60;99.90
2300;DHT22;1158;48.750;9.078;2023-03-30T07:27:09;11.60;99.90
2300;DHT22;1158;48.750;9.078;2023-03-30T07:29:36;11.50;99.90
2300;DHT22;1158;48.750;9.078;2023-03-30T07:32:04;11.50;99.90
2300;DHT22;1158;48.750;9.078;2023-03-30T07:34:31;11.40;99.90
2300;DHT22;1158;48.750;9.078;2023-03-30T07:36:58;11.40;99.90
2300;DHT22;1158;48.750;9.078;2023-03-30T07:39:26;11.40;99.90
2300;DHT22;1158;48.750;9.078;2023-03-30T07:41:53;11.30;99.90
2300;DHT22;1158;48.750;9.078;2023-03-30T07:44:20;11.30;99.90
2300;DHT22;1158;48.750;9.078;2023-03-30T07:46:47;11.20;99.90
2300;DHT22;1158;48.750;9.078;2023-03-30T07:49:16;11.20;99.90
2300;DHT22;1158;48.750;9.078;2023-03-30T07:51:42;11.30;99.90
2300;DHT22;1158;48.750;9.078;2023-03-30T07:54:09;11.20;99.90
2300;DHT22;1158;48.750;9.078;2023-03-30T07:56:36;11.20;99.90
2300;DHT22;1158;48.750;9.078;2023-03-30T07:59:04;11.20;99.90
2300;DHT22;1158;48.750;9.078;2023-03-30T08:01:32;11.30;99.90
2300;DHT22;1158;48.750;9.078;2023-03-30T08:03:59;11.30;99.90
2300;DHT22;1158;48.750;9.078;2023-03-30T08:06:27;11.30;99.90
2300;DHT22;1158;48.750;9.078;2023-03-30T08:08:54;11.30;99.90
2300;DHT22;1158;48.750;9.078;2023-03-30T08:11:21;11.40;99.90
2300;DHT22;1158;48.750;9.078;2023-03-30T08:13:48;11.30;99.90
2300;DHT22;1158;48.750;9.078;2023-03-30T08:16:15;11.30;99.90
2300;DHT22;1158;48.750;9.078;2023-03-30T08:18:41;11.20;99.90
2300;DHT22;1158;48.750;9.078;2023-03-30T08:21:08;11.20;99.90
2300;DHT22;1158;48.750;9.078;2023-03-30T08:23:38;11.20;99.90
2300;DHT22;1158;48.750;9.078;2023-03-30T08:26:04;11.10;99.90
2300;DHT22;1158;48.750;9.078;2023-03-30T08:28:32;11.20;99.90
2300;DHT22;1158;48.750;9.078;2023-03-30T08:31:02;11.30;99.90
2300;DHT22;1158;48.750;9.078;2023-03-30T08:33:29;11.30;99.90
2300;DHT22;1158;48.750;9.078;2023-03-30T08:35:56;11.40;99.90
2300;DHT22;1158;48.750;9.078;2023-03-30T08:38:22;11.40;99.90
2300;DHT22;1158;48.750;9.078;2023-03-30T08:40:52;11.40;99.90
2300;DHT22;1158;48.750;9.078;2023-03-30T08:43:28;11.30;99.90
2300;DHT22;1158;48.750;9.078;2023-03-30T08:45:58;11.30;99.90
2300;DHT22;1158;48.750;9.078;2023-03-30T08:48:28;11.40;99.90
2300;DHT22;1158;48.750;9.078;2023-03-30T08:50:58;11.40;99.90
2300;DHT22;1158;48.750;9.078;2023-03-30T08:53:27;11.30;99.90
2300;DHT22;1158;48.750;9.078;2023-03-30T08:56:00;11.30;99.90
2300;DHT22;1158;48.750;9.078;2023-03-30T08:58:36;11.30;99.90
2300;DHT22;1158;48.750;9.078;2023-03-30T09:01:11;11.20;99.90
2300;DHT22;1158;48.750;9.078;2023-03-30T09:03:47;11.10;99.90
2300;DHT22;1158;48.750;9.078;2023-03-30T09:06:26;11.00;99.90
2300;DHT22;1158;48.750;9.078;2023-03-30T09:08:54;11.00;99.90
2300;DHT22;1158;48.750;9.078;2023-03-30T09:11:28;11.00;99.90
2300;DHT22;1158;48.750;9.078;2023-03-30T09:13:56;11.00;99.90
2300;DHT22;1158;48.750;9.078;2023-03-30T09:16:32;11.00;99.90
2300;DHT22;1158;48.750;9.078;2023-03-30T09:19:02;11.00;99.90
2300;DHT22;1158;48.750;9.078;2023-03-30T09:21:31;10.90;99.90
2300;DHT22;1158;48.750;9.078;2023-03-30T09:24:00;10.90;99.90
2300;DHT22;1158;48.750;9.078;2023-03-30T09:26:42;10.90;99.90
2300;DHT22;1158;48.750;9.078;2023-03-30T09:29:17;11.00;99.90
2300;DHT22;1158;48.750;9.078;2023-03-30T09:31:49;11.20;99.90
2300;DHT22;1158;48.750;9.078;2023-03-30T09:34:24;11.30;99.90
2300;DHT22;1158;48.750;9.078;2023-03-30T09:36:55;11.30;99.90
2300;DHT22;1158;48.750;9.078;2023-03-30T09:39:24;11.30;99.90
2300;DHT22;1158;48.750;9.078;2023-03-30T09:42:03;11.30;99.90
2300;DHT22;1158;48.750;9.078;2023-03-30T09:44:35;11.30;99.90
2300;DHT22;1158;48.750;9.078;2023-03-30T09:47:15;11.40;99.90
2300;DHT22;1158;48.750;9.078;2023-03-30T09:49:44;11.40;99.90
2300;DHT22;1158;48.750;9.078;2023-03-30T09:52:18;11.40;99.90
2300;DHT22;1158;48.750;9.078;2023-03-30T09:54:46;11.50;99.90
2300;DHT22;1158;48.750;9.078;2023-03-30T09:57:24;11.50;99.90
2300;DHT22;1158;48.750;9.078;2023-03-30T09:59:51;11.50;99.90
2300;DHT22;1158;48.750;9.078;2023-03-30T10:02:21;11.50;99.90
2300;DHT22;1158;48.750;9.078;2023-03-30T10:04:59;11.60;99.90
2300;DHT22;1158;48.750;9.078;2023-03-30T10:07:31;12.20;99.90
2300;DHT22;1158;48.750;9.078;2023-03-30T10:09:59;12.70;99.90
2300;DHT22;1158;48.750;9.078;2023-03-30T10:12:29;12.90;99.90
2300;DHT22;1158;48.750;9.078;2023-03-30T10:14:59;13.10;99.90
2300;DHT22;1158;48.750;9.078;2023-03-30T10:17:27;13.10;99.90
2300;DHT22;1158;48.750;9.078;2023-03-30T10:20:15;13.10;99.90
2300;DHT22;1158;48.750;9.078;2023-03-30T10:22:51;12.90;99.90
2300;DHT22;1158;48.750;9.078;2023-03-30T10:25:20;13.10;99.90
2300;DHT22;1158;48.750;9.078;2023-03-30T10:27:51;13.50;99.90
2300;DHT22;1158;48.750;9.078;2023-03-30T10:30:22;13.40;99.90
2300;DHT22;1158;48.750;9.078;2023-03-30T10:32:51;13.40;99.90
2300;DHT22;1158;48.750;9.078;2023-03-30T10:35:20;13.30;99.90
2300;DHT22;1158;48.750;9.078;2023-03-30T10:37:50;13.10;99.90
2300;DHT22;1158;48.750;9.078;2023-03-30T10:40:19;13.30;99.90
2300;DHT22;1158;48.750;9.078;2023-03-30T10:42:51;13.20;99.90
2300;DHT22;1158;48.750;9.078;2023-03-30T10:45:25;13.10;99.90
2300;DHT22;1158;48.750;9.078;2023-03-30T10:48:05;13.00;99.90
2300;DHT22;1158;48.750;9.078;2023-03-30T10:50:44;12.90;99.90
2300;DHT22;1158;48.750;9.078;2023-03-30T10:53:25;12.90;99.90
2300;DHT22;1158;48.750;9.078;2023-03-30T10:56:03;12.80;99.90
2300;DHT22;1158;48.750;9.078;2023-03-30T10:58:46;12.70;99.90
2300;DHT22;1158;48.750;9.078;2023-03-30T11:01:23;12.90;99.90
2300;DHT22;1158;48.750;9.078;2023-03-30T11:03:54;13.00;99.90
2300;DHT22;1158;48.750;9.078;2023-03-30T11:06:25;13.20;99.90
2300;DHT22;1158;48.750;9.078;2023-03-30T11:08:58;13.20;99.90
2300;DHT22;1158;48.750;9.078;2023-03-30T11:11:32;13.30;99.90
2300;DHT22;1158;48.750;9.078;2023-03-30T11:14:02;13.30;99.90
2300;DHT22;1158;48.750;9.078;2023-03-30T11:16:38;13.40;99.90
2300;DHT22;1158;48.750;9.078;2023-03-30T11:19:13;13.40;99.90
2300;DHT22;1158;48.750;9.078;2023-03-30T11:21:45;13.50;99.90
2300;DHT22;1158;48.750;9.078;2023-03-30T11:24:17;13.60;99.90
2300;DHT22;1158;48.750;9.078;2023-03-30T11:26:48;13.80;99.90
2300;DHT22;1158;48.750;9.078;2023-03-30T11:29:27;13.80;99.90
2300;DHT22;1158;48.750;9.078;2023-03-30T11:32:09;14.20;99.90
2300;DHT22;1158;48.750;9.078;2023-03-30T11:34:47;14.50;99.90
2300;DHT22;1158;48.750;9.078;2023-03-30T11:37:20;14.50;99.90
2300;DHT22;1158;48.750;9.078;2023-03-30T11:39:55;14.80;99.90
2300;DHT22;1158;48.750;9.078;2023-03-30T11:42:26;14.80;99.90
2300;DHT22;1158;48.750;9.078;2023-03-30T11:44:56;14.70;99.90
2300;DHT22;1158;48.750;9.078;2023-03-30T11:47:34;14.60;99.90
2300;DHT22;1158;48.750;9.078;2023-03-30T11:50:16;14.70;99.90
2300;DHT22;1158;48.750;9.078;2023-03-30T11:52:52;14.40;99.90
2300;DHT22;1158;48.750;9.078;2023-03-30T11:55:28;14.40;99.90
2300;DHT22;1158;48.750;9.078;2023-03-30T11:58:08;14.20;99.90
2300;DHT22;1158;48.750;9.078;2023-03-30T12:00:48;14.80;99.90
2300;DHT22;1158;48.750;9.078;2023-03-30T12:03:35;15.20;99.90
2300;DHT22;1158;48.750;9.078;2023-03-30T12:06:16;15.00;99.90
2300;DHT22;1158;48.750;9.078;2023-03-30T12:08:57;14.60;99.90
2300;DHT22;1158;48.750;9.078;2023-03-30T12:11:33;14.40;99.90
2300;DHT22;1158;48.750;9.078;2023-03-30T12:14:06;14.20;99.90
2300;DHT22;1158;48.750;9.078;2023-03-30T12:16:44;14.00;99.90
2300;DHT22;1158;48.750;9.078;2023-03-30T12:19:17;13.70;99.90
2300;DHT22;1158;48.750;9.078;2023-03-30T12:21:51;13.60;99.90
2300;DHT22;1158;48.750;9.078;2023-03-30T12:24:24;13.50;99.90
2300;DHT22;1158;48.750;9.078;2023-03-30T12:26:54;13.50;99.90
2300;DHT22;1158;48.750;9.078;2023-03-30T12:29:29;13.70;99.90
2300;DHT22;1158;48.750;9.078;2023-03-30T12:32:21;14.50;99.90
2300;DHT22;1158;48.750;9.078;2023-03-30T12:34:48;15.30;99.90
2300;DHT22;1158;48.750;9.078;2023-03-30T12:37:18;16.30;99.90
2300;DHT22;1158;48.750;9.078;2023-03-30T12:39:48;16.90;99.90
2300;DHT22;1158;48.750;9.078;2023-03-30T12:42:21;17.00;99.90
2300;DHT22;1158;48.750;9.078;2023-03-30T12:45:28;16.90;99.90
2300;DHT22;1158;48.750;9.078;2023-03-30T12:48:14;16.70;99.90
2300;DHT22;1158;48.750;9.078;2023-03-30T12:50:53;16.30;99.90
2300;DHT22;1158;48.750;9.078;2023-03-30T12:56:45;16.30;99.90
2300;DHT22;1158;48.750;9.078;2023-03-30T13:02:34;15.50;99.90
2300;DHT22;1158;48.750;9.078;2023-03-30T13:05:16;15.40;99.90
2300;DHT22;1158;48.750;9.078;2023-03-30T13:07:44;15.70;99.90
2300;DHT22;1158;48.750;9.078;2023-03-30T13:10:34;15.90;99.90
2300;DHT22;1158;48.750;9.078;2023-03-30T13:13:03;16.50;99.90
2300;DHT22;1158;48.750;9.078;2023-03-30T13:15:33;16.20;99.90
2300;DHT22;1158;48.750;9.078;2023-03-30T13:18:01;15.70;99.90
2300;DHT22;1158;48.750;9.078;2023-03-30T13:20:31;16.10;99.90
2300;DHT22;1158;48.750;9.078;2023-03-30T13:23:04;17.30;99.90
2300;DHT22;1158;48.750;9.078;2023-03-30T13:25:38;17.90;99.90
2300;DHT22;1158;48.750;9.078;2023-03-30T13:31:21;17.20;99.90
2300;DHT22;1158;48.750;9.078;2023-03-30T13:33:55;16.80;99.90
2300;DHT22;1158;48.750;9.078;2023-03-30T13:36:29;16.50;99.90
2300;DHT22;1158;48.750;9.078;2023-03-30T13:39:03;16.30;99.90
2300;DHT22;1158;48.750;9.078;2023-03-30T13:41:40;16.40;99.90
2300;DHT22;1158;48.750;9.078;2023-03-30T13:44:23;17.10;99.90
2300;DHT22;1158;48.750;9.078;2023-03-30T13:46:58;16.80;99.90
2300;DHT22;1158;48.750;9.078;2023-03-30T13:49:34;16.50;99.90
2300;DHT22;1158;48.750;9.078;2023-03-30T13:52:09;16.20;99.90
2300;DHT22;1158;48.750;9.078;2023-03-30T13:54:38;17.50;99.90
2300;DHT22;1158;48.750;9.078;2023-03-30T13:57:08;17.10;99.90
2300;DHT22;1158;48.750;9.078;2023-03-30T13:59:39;16.50;99.90
2300;DHT22;1158;48.750;9.078;2023-03-30T14:02:12;16.60;99.90
2300;DHT22;1158;48.750;9.078;2023-03-30T14:04:41;17.30;99.90
2300;DHT22;1158;48.750;9.078;2023-03-30T14:07:14;17.70;99.90
2300;DHT22;1158;48.750;9.078;2023-03-30T14:09:42;18.10;99.90
2300;DHT22;1158;48.750;9.078;2023-03-30T14:12:11;17.20;99.90
2300;DHT22;1158;48.750;9.078;2023-03-30T14:14:42;16.50;99.90
2300;DHT22;1158;48.750;9.078;2023-03-30T14:17:14;16.10;99.90
2300;DHT22;1158;48.750;9.078;2023-03-30T14:19:51;16.40;99.90
2300;DHT22;1158;48.750;9.078;2023-03-30T14:22:26;16.90;99.90
2300;DHT22;1158;48.750;9.078;2023-03-30T14:24:58;16.50;99.90
2300;DHT22;1158;48.750;9.078;2023-03-30T14:27:30;16.20;99.90
2300;DHT22;1158;48.750;9.078;2023-03-30T14:29:57;16.10;99.90
2300;DHT22;1158;48.750;9.078;2023-03-30T14:32:32;16.10;99.90
2300;DHT22;1158;48.750;9.078;2023-03-30T14:35:04;16.00;99.90
2300;DHT22;1158;48.750;9.078;2023-03-30T14:37:34;15.70;99.90
2300;DHT22;1158;48.750;9.078;2023-03-30T14:40:01;15.60;99.90
2300;DHT22;1158;48.750;9.078;2023-03-30T14:42:31;15.40;99.90
2300;DHT22;1158;48.750;9.078;2023-03-30T14:44:59;15.20;99.90
2300;DHT22;1158;48.750;9.078;2023-03-30T14:47:26;15.40;99.90
2300;DHT22;1158;48.750;9.078;2023-03-30T14:49:56;15.50;99.90
2300;DHT22;1158;48.750;9.078;2023-03-30T14:52:25;15.70;99.90
2300;DHT22;1158;48.750;9.078;2023-03-30T14:54:55;15.70;99.90
2300;DHT22;1158;48.750;9.078;2023-03-30T14:57:24;15.60;99.90
2300;DHT22;1158;48.750;9.078;2023-03-30T14:59:53;15.30;99.90
2300;DHT22;1158;48.750;9.078;2023-03-30T15:02:22;15.20;99.90
2300;DHT22;1158;48.750;9.078;2023-03-30T15:04:51;15.10;99.90
2300;DHT22;1158;48.750;9.078;2023-03-30T15:07:19;15.00;99.90
2300;DHT22;1158;48.750;9.078;2023-03-30T15:09:46;14.90;99.90
2300;DHT22;1158;48.750;9.078;2023-03-30T15:12:23;15.00;99.90
2300;DHT22;1158;48.750;9.078;2023-03-30T15:14:55;14.90;99.90
2300;DHT22;1158;48.750;9.078;2023-03-30T15:17:25;15.00;99.90
2300;DHT22;1158;48.750;9.078;2023-03-30T15:19:53;15.00;99.90
2300;DHT22;1158;48.750;9.078;2023-03-30T15:22:25;15.00;99.90
2300;DHT22;1158;48.750;9.078;2023-03-30T15:24:53;15.60;99.90
2300;DHT22;1158;48.750;9.078;2023-03-30T15:27:22;15.60;99.90
2300;DHT22;1158;48.750;9.078;2023-03-30T15:29:49;15.30;99.90
2300;DHT22;1158;48.750;9.078;2023-03-30T15:32:18;15.10;99.90
2300;DHT22;1158;48.750;9.078;2023-03-30T15:35:05;15.10;99.90
2300;DHT22;1158;48.750;9.078;2023-03-30T15:37:34;16.40;99.90
2300;DHT22;1158;48.750;9.078;2023-03-30T15:40:25;18.30;99.50
2300;DHT22;1158;48.750;9.078;2023-03-30T15:43:12;18.50;97.40
2300;DHT22;1158;48.750;9.078;2023-03-30T15:45:39;17.90;97.40
2300;DHT22;1158;48.750;9.078;2023-03-30T15:48:09;17.20;97.60
2300;DHT22;1158;48.750;9.078;2023-03-30T15:50:37;16.40;97.50
2300;DHT22;1158;48.750;9.078;2023-03-30T15:53:04;17.10;97.00
2300;DHT22;1158;48.750;9.078;2023-03-30T15:55:32;17.40;96.10
2300;DHT22;1158;48.750;9.078;2023-03-30T15:57:59;17.60;95.90
2300;DHT22;1158;48.750;9.078;2023-03-30T16:00:37;17.90;95.50
2300;DHT22;1158;48.750;9.078;2023-03-30T16:03:03;18.10;95.40
2300;DHT22;1158;48.750;9.078;2023-03-30T16:05:32;18.40;94.80
2300;DHT22;1158;48.750;9.078;2023-03-30T16:07:59;18.50;94.90
2300;DHT22;1158;48.750;9.078;2023-03-30T16:10:28;18.70;94.60
2300;DHT22;1158;48.750;9.078;2023-03-30T16:12:59;18.40;94.80
2300;DHT22;1158;48.750;9.078;2023-03-30T16:15:30;18.30;94.60
2300;DHT22;1158;48.750;9.078;2023-03-30T16:17:57;18.60;94.40
2300;DHT22;1158;48.750;9.078;2023-03-30T16:20:25;18.30;94.50
2300;DHT22;1158;48.750;9.078;2023-03-30T16:22:52;17.00;95.20
2300;DHT22;1158;48.750;9.078;2023-03-30T16:25:21;15.60;96.70
2300;DHT22;1158;48.750;9.078;2023-03-30T16:27:48;14.70;97.90
2300;DHT22;1158;48.750;9.078;2023-03-30T16:30:18;14.40;98.50
2300;DHT22;1158;48.750;9.078;2023-03-30T16:32:48;14.30;98.80
2300;DHT22;1158;48.750;9.078;2023-03-30T16:35:14;14.50;98.80
2300;DHT22;1158;48.750;9.078;2023-03-30T16:37:41;14.60;98.90
2300;DHT22;1158;48.750;9.078;2023-03-30T16:40:17;14.20;99.40
2300;DHT22;1158;48.750;9.078;2023-03-30T16:42:46;13.90;99.90